Time;durP1;ratioP1;P1;durP2;ratioP2;P2;SDS_P1;SDS_P2;PMS_P1;PMS_P2;Temp;Humidity;BMP_temperature;BMP_pressure;BME280_temperature;BME280_humidity;BME280_pressure;Samples;Min_cycle;Max_cycle;Signal;HPM_P1;HPM_P2
2024/03/13 00:01:33;;;;;;;22.37;21.57;;;;;;;;;;5019552;28;20488;-69
2024/03/13 00:04:04;;;;;;;23.30;22.40;;;;;;;;;;5024229;28;20466;-72
2024/03/13 00:06:32;;;;;;;22.00;21.20;;;;;;;;;;5030825;28;20549;-72
2024/03/13 00:08:59;;;;;;;23.83;22.93;;;;;;;;;;5024113;28;20462;-71
2024/03/13 00:11:28;;;;;;;22.33;21.43;;;;;;;;;;5023389;28;20761;-70
2024/03/13 00:13:55;;;;;;;23.00;22.10;;;;;;;;;;5031025;28;20952;-70
2024/03/13 00:16:23;;;;;;;23.80;22.90;;;;;;;;;;5031796;28;20468;-70
2024/03/13 00:18:51;;;;;;;23.53;22.63;;;;;;;;;;5031413;28;20580;-70
2024/03/13 00:21:21;;;;;;;23.87;22.97;;;;;;;;;;5025222;28;21038;-71
2024/03/13 00:23:52;;;;;;;22.77;21.87;;;;;;;;;;5023414;28;20471;-70
2024/03/13 00:26:21;;;;;;;23.67;22.77;;;;;;;;;;5029627;28;20456;-72
2024/03/13 00:28:48;;;;;;;23.90;23.00;;;;;;;;;;5029845;28;20548;-72
2024/03/13 00:31:15;;;;;;;23.60;22.70;;;;;;;;;;5030460;28;20458;-72
2024/03/13 00:33:42;;;;;;;23.97;23.07;;;;;;;;;;5024108;28;20875;-70
2024/03/13 00:36:09;;;;;;;23.00;22.10;;;;;;;;;;5031711;28;20516;-70
2024/03/13 00:38:38;;;;;;;23.77;22.87;;;;;;;;;;5028129;28;20485;-69
2024/03/13 00:41:05;;;;;;;22.50;21.70;;;;;;;;;;5024829;28;20465;-71
2024/03/13 00:43:32;;;;;;;21.47;20.67;;;;;;;;;;5031409;28;20480;-69
2024/03/13 00:46:00;;;;;;;22.20;21.40;;;;;;;;;;5029461;28;20462;-71
2024/03/13 00:48:31;;;;;;;22.20;21.40;;;;;;;;;;5025648;28;20772;-71
2024/03/13 00:51:00;;;;;;;22.33;21.53;;;;;;;;;;5023230;28;20472;-72
2024/03/13 00:53:27;;;;;;;22.80;22.00;;;;;;;;;;5030405;28;20469;-71
2024/03/13 00:55:58;;;;;;;22.90;22.10;;;;;;;;;;5028506;28;20461;-72
2024/03/13 00:58:26;;;;;;;22.33;21.53;;;;;;;;;;5026118;28;20497;-71
2024/03/13 01:00:54;;;;;;;21.90;21.10;;;;;;;;;;5003098;28;21050;-72
2024/03/13 01:03:24;;;;;;;22.83;22.03;;;;;;;;;;4993968;28;20465;-71
2024/03/13 01:05:55;;;;;;;22.07;21.27;;;;;;;;;;4995365;28;20854;-71
2024/03/13 01:08:24;;;;;;;23.07;22.27;;;;;;;;;;4995275;28;20482;-71
2024/03/13 01:10:53;;;;;;;22.50;21.70;;;;;;;;;;4995408;28;20472;-70
2024/03/13 01:13:22;;;;;;;23.13;22.33;;;;;;;;;;4995199;28;20475;-73
2024/03/13 01:15:49;;;;;;;22.03;21.23;;;;;;;;;;4995921;28;20473;-72
2024/03/13 01:18:16;;;;;;;21.70;20.90;;;;;;;;;;4995842;28;20502;-72
2024/03/13 01:20:43;;;;;;;22.60;21.80;;;;;;;;;;4995504;28;20976;-71
2024/03/13 01:23:10;;;;;;;22.40;21.60;;;;;;;;;;4993977;28;20482;-72
2024/03/13 01:25:40;;;;;;;23.00;22.20;;;;;;;;;;4995529;28;20473;-71
2024/03/13 01:28:08;;;;;;;24.20;23.30;;;;;;;;;;4993244;28;20473;-70
2024/03/13 01:30:36;;;;;;;25.40;24.40;;;;;;;;;;4995781;28;20546;-71
2024/03/13 01:33:04;;;;;;;25.07;24.07;;;;;;;;;;4994657;28;20660;-71
2024/03/13 01:35:31;;;;;;;24.47;23.57;;;;;;;;;;4992978;28;20465;-72
2024/03/13 01:37:58;;;;;;;23.57;22.67;;;;;;;;;;4996732;28;20477;-71
2024/03/13 01:54:54;;;;;;;23.10;22.20;;;;;;;;;;4993996;28;20610;-73
2024/03/13 01:57:31;;;;;;;23.33;22.43;;;;;;;;;;4994626;28;21158;-72
2024/03/13 02:02:41;;;;;;;24.20;23.30;;;;;;;;;;5004508;28;20515;-73
2024/03/13 02:05:11;;;;;;;22.40;21.60;;;;;;;;;;5024410;28;20470;-72
2024/03/13 02:07:38;;;;;;;23.60;22.70;;;;;;;;;;5034569;28;21016;-73
2024/03/13 02:10:06;;;;;;;23.60;22.70;;;;;;;;;;5020505;28;20473;-73
2024/03/13 02:12:33;;;;;;;23.40;22.50;;;;;;;;;;5024592;28;20461;-72
2024/03/13 02:15:00;;;;;;;23.17;22.27;;;;;;;;;;5029089;28;20954;-72
2024/03/13 02:17:27;;;;;;;24.43;23.53;;;;;;;;;;5023387;28;20478;-73
2024/03/13 02:19:55;;;;;;;23.77;22.87;;;;;;;;;;5029148;28;20497;-72
2024/03/13 02:22:24;;;;;;;25.67;24.67;;;;;;;;;;5029835;28;20465;-72
2024/03/13 02:24:52;;;;;;;24.47;23.57;;;;;;;;;;5028683;28;20813;-73
2024/03/13 02:27:18;;;;;;;24.43;23.53;;;;;;;;;;5023299;28;20475;-72
2024/03/13 02:29:47;;;;;;;24.10;23.20;;;;;;;;;;5037102;28;20470;-72
2024/03/13 02:32:14;;;;;;;23.80;22.90;;;;;;;;;;5027902;28;20503;-72
2024/03/13 02:34:43;;;;;;;24.93;23.97;;;;;;;;;;5026635;28;20488;-72
2024/03/13 02:37:11;;;;;;;23.13;22.23;;;;;;;;;;5022853;28;20556;-72
2024/03/13 02:39:39;;;;;;;24.77;23.83;;;;;;;;;;5025415;28;20501;-72
2024/03/13 02:42:09;;;;;;;23.80;22.90;;;;;;;;;;5024922;28;20457;-72
2024/03/13 02:44:36;;;;;;;24.07;23.17;;;;;;;;;;5026891;28;20988;-72
2024/03/13 02:47:04;;;;;;;24.67;23.70;;;;;;;;;;5024131;28;20506;-72
2024/03/13 02:49:31;;;;;;;23.93;23.03;;;;;;;;;;5023218;28;20472;-72
2024/03/13 02:51:58;;;;;;;25.87;24.87;;;;;;;;;;5023935;28;20473;-72
2024/03/13 02:54:26;;;;;;;25.50;24.50;;;;;;;;;;5036214;28;20477;-73
2024/03/13 02:56:53;;;;;;;25.97;24.97;;;;;;;;;;5021176;28;20473;-72
2024/03/13 02:59:21;;;;;;;26.07;25.07;;;;;;;;;;5027359;28;20497;-71
2024/03/13 03:01:48;;;;;;;24.30;23.40;;;;;;;;;;5025591;28;20853;-71
2024/03/13 03:04:16;;;;;;;25.07;24.10;;;;;;;;;;5025835;28;20463;-70
2024/03/13 03:06:45;;;;;;;25.17;24.17;;;;;;;;;;5027937;28;20463;-71
2024/03/13 03:09:13;;;;;;;24.83;23.83;;;;;;;;;;5021353;28;20563;-73
2024/03/13 03:11:42;;;;;;;24.17;23.27;;;;;;;;;;5017850;28;21097;-73
2024/03/13 03:14:10;;;;;;;24.70;23.80;;;;;;;;;;5022387;28;20471;-72
2024/03/13 03:16:37;;;;;;;25.00;24.00;;;;;;;;;;5027511;28;20496;-71
2024/03/13 03:19:04;;;;;;;24.87;23.90;;;;;;;;;;5019786;28;20492;-73
2024/03/13 03:21:32;;;;;;;24.00;23.10;;;;;;;;;;5026415;28;20461;-72
2024/03/13 03:24:00;;;;;;;25.57;24.57;;;;;;;;;;5017764;28;20462;-73
2024/03/13 03:26:28;;;;;;;26.93;25.90;;;;;;;;;;5022400;28;20450;-72
2024/03/13 03:28:56;;;;;;;25.37;24.37;;;;;;;;;;5023838;28;20472;-72
2024/03/13 03:31:24;;;;;;;24.90;24.00;;;;;;;;;;5024306;28;20829;-73
2024/03/13 03:33:52;;;;;;;24.90;24.00;;;;;;;;;;5023151;28;20876;-68
2024/03/13 03:36:20;;;;;;;25.63;24.63;;;;;;;;;;5024771;28;20990;-69
2024/03/13 03:38:47;;;;;;;24.80;23.90;;;;;;;;;;5027830;28;20458;-71
2024/03/13 03:41:15;;;;;;;24.77;23.87;;;;;;;;;;5024506;28;20461;-71
2024/03/13 03:43:43;;;;;;;23.87;22.97;;;;;;;;;;5020439;28;20989;-69
2024/03/13 03:46:12;;;;;;;25.43;24.43;;;;;;;;;;5020673;28;20468;-69
2024/03/13 03:48:40;;;;;;;24.00;23.10;;;;;;;;;;5026884;28;20510;-71
2024/03/13 03:51:08;;;;;;;24.40;23.50;;;;;;;;;;5026954;28;20461;-72
2024/03/13 03:53:35;;;;;;;25.50;24.50;;;;;;;;;;5023643;28;20883;-70
2024/03/13 03:56:02;;;;;;;25.00;24.00;;;;;;;;;;5026920;28;20480;-72
2024/03/13 03:58:29;;;;;;;25.40;24.40;;;;;;;;;;5033844;28;21023;-72
2024/03/13 04:00:57;;;;;;;24.67;23.67;;;;;;;;;;5018911;28;20596;-72
2024/03/13 04:03:24;;;;;;;23.90;23.00;;;;;;;;;;5025765;28;20497;-70
2024/03/13 04:05:51;;;;;;;25.10;24.10;;;;;;;;;;5024669;28;20563;-70
2024/03/13 04:08:20;;;;;;;25.67;24.67;;;;;;;;;;5023007;28;20669;-70
2024/03/13 04:10:48;;;;;;;26.00;25.00;;;;;;;;;;5034724;28;20548;-70
2024/03/13 04:13:15;;;;;;;23.70;22.80;;;;;;;;;;5035853;28;20500;-71
2024/03/13 04:15:43;;;;;;;24.53;23.63;;;;;;;;;;5026760;28;20485;-69
2024/03/13 04:18:12;;;;;;;24.30;23.40;;;;;;;;;;5022821;28;20521;-69
2024/03/13 04:20:39;;;;;;;24.80;23.90;;;;;;;;;;5042348;28;20488;-69
2024/03/13 04:23:07;;;;;;;24.77;23.87;;;;;;;;;;5023931;28;20616;-71
2024/03/13 04:25:36;;;;;;;24.03;23.13;;;;;;;;;;5040384;28;20449;-71
2024/03/13 04:28:05;;;;;;;23.60;22.70;;;;;;;;;;5019945;28;20466;-70
2024/03/13 04:30:32;;;;;;;22.23;21.43;;;;;;;;;;5019726;28;20470;-70
2024/03/13 04:32:59;;;;;;;22.30;21.50;;;;;;;;;;5037196;28;20473;-71
2024/03/13 04:35:26;;;;;;;21.83;21.03;;;;;;;;;;5039255;28;20460;-70
2024/03/13 04:37:54;;;;;;;21.77;20.97;;;;;;;;;;5025901;28;20460;-70
2024/03/13 04:40:22;;;;;;;22.23;21.43;;;;;;;;;;5038085;28;20493;-70
2024/03/13 04:42:49;;;;;;;22.23;21.43;;;;;;;;;;5027374;28;20541;-72
2024/03/13 04:45:16;;;;;;;21.77;20.97;;;;;;;;;;5030093;28;20461;-72
2024/03/13 04:47:44;;;;;;;21.07;20.33;;;;;;;;;;5040806;28;20512;-72
2024/03/13 04:50:11;;;;;;;20.90;20.20;;;;;;;;;;5025909;28;20469;-72
2024/03/13 04:52:39;;;;;;;20.50;19.80;;;;;;;;;;5046351;28;20537;-72
2024/03/13 04:55:06;;;;;;;20.60;19.90;;;;;;;;;;5042307;28;20465;-75
2024/03/13 04:57:34;;;;;;;21.50;20.70;;;;;;;;;;5024079;28;20462;-72
2024/03/13 05:00:01;;;;;;;21.97;21.17;;;;;;;;;;5026549;28;20485;-72
2024/03/13 05:02:29;;;;;;;21.30;20.50;;;;;;;;;;5021014;28;20498;-73
2024/03/13 05:04:57;;;;;;;21.90;21.10;;;;;;;;;;5015918;28;20838;-72
2024/03/13 05:07:24;;;;;;;21.73;20.93;;;;;;;;;;5023928;28;20472;-73
2024/03/13 05:09:53;;;;;;;21.53;20.73;;;;;;;;;;5014383;28;20466;-71
2024/03/13 05:12:20;;;;;;;21.07;20.27;;;;;;;;;;5020265;28;20801;-72
2024/03/13 05:14:49;;;;;;;21.53;20.73;;;;;;;;;;5021524;28;20470;-72
2024/03/13 05:17:17;;;;;;;21.77;20.97;;;;;;;;;;5027585;28;20458;-73
2024/03/13 05:19:44;;;;;;;21.07;20.27;;;;;;;;;;5023359;28;20594;-73
2024/03/13 05:22:12;;;;;;;20.23;19.53;;;;;;;;;;5018004;28;20469;-73
2024/03/13 05:24:40;;;;;;;20.10;19.40;;;;;;;;;;5021958;28;20470;-74
2024/03/13 05:27:08;;;;;;;20.80;20.00;;;;;;;;;;5021684;28;20512;-73
2024/03/13 05:29:35;;;;;;;20.80;20.00;;;;;;;;;;5026648;28;21008;-73
2024/03/13 05:32:03;;;;;;;19.30;18.60;;;;;;;;;;5016881;28;20478;-73
2024/03/13 05:34:30;;;;;;;20.07;19.37;;;;;;;;;;5020311;28;20523;-75
2024/03/13 05:36:57;;;;;;;20.77;19.97;;;;;;;;;;5016623;28;20553;-75
2024/03/13 05:39:25;;;;;;;20.77;19.97;;;;;;;;;;5040902;28;20471;-76
2024/03/13 05:41:52;;;;;;;20.17;19.47;;;;;;;;;;5027175;28;20960;-71
2024/03/13 05:44:20;;;;;;;21.30;20.50;;;;;;;;;;5037963;28;20908;-72
2024/03/13 05:46:48;;;;;;;20.90;20.10;;;;;;;;;;5027406;28;20540;-73
2024/03/13 05:49:16;;;;;;;21.10;20.30;;;;;;;;;;5038769;28;20471;-72
2024/03/13 05:51:44;;;;;;;21.20;20.40;;;;;;;;;;5019193;28;20463;-72
2024/03/13 05:54:11;;;;;;;20.67;19.90;;;;;;;;;;5020643;28;20475;-72
2024/03/13 05:56:38;;;;;;;20.00;19.30;;;;;;;;;;5019107;28;20461;-71
2024/03/13 05:59:05;;;;;;;20.63;19.87;;;;;;;;;;5037569;28;20482;-75
2024/03/13 06:01:32;;;;;;;21.13;20.33;;;;;;;;;;5026797;28;20514;-73
2024/03/13 06:04:00;;;;;;;20.80;20.00;;;;;;;;;;5026045;28;20869;-72
2024/03/13 06:06:28;;;;;;;21.40;20.60;;;;;;;;;;5020316;28;21054;-73
2024/03/13 06:08:56;;;;;;;21.60;20.80;;;;;;;;;;5019511;28;20603;-73
2024/03/13 06:11:23;;;;;;;20.40;19.60;;;;;;;;;;5024632;28;20631;-72
2024/03/13 06:13:50;;;;;;;21.20;20.40;;;;;;;;;;5021018;28;21182;-73
2024/03/13 06:16:18;;;;;;;19.80;19.10;;;;;;;;;;5026535;28;20464;-73
2024/03/13 06:18:45;;;;;;;20.67;19.87;;;;;;;;;;5038223;28;21018;-73
2024/03/13 06:21:13;;;;;;;21.00;20.20;;;;;;;;;;5022046;28;20494;-72
2024/03/13 06:23:47;;;;;;;20.13;19.43;;;;;;;;;;5036092;28;20839;-74
2024/03/13 06:26:17;;;;;;;20.00;19.30;;;;;;;;;;5010597;28;20505;-73
2024/03/13 06:31:29;;;;;;;20.67;19.87;;;;;;;;;;5024115;28;20475;-72
2024/03/13 06:33:56;;;;;;;20.23;19.53;;;;;;;;;;5026210;28;20552;-71
2024/03/13 06:36:24;;;;;;;20.57;19.77;;;;;;;;;;5017638;28;20958;-73
2024/03/13 06:38:51;;;;;;;21.13;20.33;;;;;;;;;;5019856;28;20945;-72
2024/03/13 06:41:18;;;;;;;21.23;20.43;;;;;;;;;;5025009;28;20493;-72
2024/03/13 06:43:46;;;;;;;20.57;19.77;;;;;;;;;;5021643;28;20504;-72
2024/03/13 06:46:13;;;;;;;20.53;19.73;;;;;;;;;;5022447;28;20471;-72
2024/03/13 06:48:40;;;;;;;21.43;20.63;;;;;;;;;;5022855;28;20455;-73
2024/03/13 06:51:08;;;;;;;20.97;20.17;;;;;;;;;;5019522;28;20474;-73
2024/03/13 06:53:35;;;;;;;21.30;20.50;;;;;;;;;;5014752;28;20478;-73
2024/03/13 06:56:04;;;;;;;21.03;20.23;;;;;;;;;;5033327;28;20472;-73
2024/03/13 06:58:31;;;;;;;21.03;20.23;;;;;;;;;;5020497;28;20581;-73
2024/03/13 07:00:58;;;;;;;20.63;19.83;;;;;;;;;;5020277;28;20502;-73
2024/03/13 07:03:26;;;;;;;20.60;19.80;;;;;;;;;;5030928;28;20468;-73
2024/03/13 07:05:53;;;;;;;20.13;19.43;;;;;;;;;;5033306;28;20599;-73
2024/03/13 07:08:20;;;;;;;19.93;19.23;;;;;;;;;;5014705;28;20473;-73
2024/03/13 07:10:47;;;;;;;20.57;19.77;;;;;;;;;;5023141;28;20462;-72
2024/03/13 07:13:15;;;;;;;20.13;19.43;;;;;;;;;;5015119;28;20459;-75
2024/03/13 07:15:43;;;;;;;20.90;20.10;;;;;;;;;;5033461;28;20550;-75
2024/03/13 07:18:10;;;;;;;21.23;20.43;;;;;;;;;;5023265;28;20931;-72
2024/03/13 07:20:37;;;;;;;21.73;20.83;;;;;;;;;;5019232;28;20993;-72
2024/03/13 07:23:05;;;;;;;22.77;21.87;;;;;;;;;;5022255;28;20467;-73
2024/03/13 07:25:32;;;;;;;22.87;21.87;;;;;;;;;;5015862;28;20505;-73
2024/03/13 07:28:00;;;;;;;21.87;20.97;;;;;;;;;;5013978;28;20462;-72
2024/03/13 07:30:29;;;;;;;21.30;20.50;;;;;;;;;;5021718;28;20462;-72
2024/03/13 07:32:56;;;;;;;21.10;20.30;;;;;;;;;;5020832;28;20524;-73
2024/03/13 07:35:25;;;;;;;21.50;20.70;;;;;;;;;;5035161;28;20476;-72
2024/03/13 07:37:52;;;;;;;21.57;20.77;;;;;;;;;;5019732;28;20475;-76
2024/03/13 07:40:20;;;;;;;22.13;21.23;;;;;;;;;;5017294;28;20497;-72
2024/03/13 07:42:47;;;;;;;21.87;20.97;;;;;;;;;;5019356;28;20489;-74
2024/03/13 07:45:16;;;;;;;21.80;20.90;;;;;;;;;;5032916;28;21076;-73
2024/03/13 07:47:43;;;;;;;21.63;20.83;;;;;;;;;;5032132;28;20837;-77
2024/03/13 07:50:10;;;;;;;21.20;20.40;;;;;;;;;;5019349;28;20464;-71
2024/03/13 07:52:38;;;;;;;20.93;20.13;;;;;;;;;;5012036;28;20461;-72
2024/03/13 07:55:05;;;;;;;21.10;20.30;;;;;;;;;;5017953;28;20912;-74
2024/03/13 07:57:32;;;;;;;19.70;19.00;;;;;;;;;;5017294;28;20847;-73
2024/03/13 08:00:00;;;;;;;20.07;19.37;;;;;;;;;;5015669;28;20478;-73
2024/03/13 08:02:27;;;;;;;19.47;18.77;;;;;;;;;;5010421;28;20501;-72
2024/03/13 08:04:55;;;;;;;19.37;18.67;;;;;;;;;;5012355;28;20467;-72
2024/03/13 08:07:26;;;;;;;19.40;18.70;;;;;;;;;;4996106;28;20573;-72
2024/03/13 08:09:53;;;;;;;20.17;19.47;;;;;;;;;;5008920;28;20903;-72
2024/03/13 08:12:20;;;;;;;20.73;19.93;;;;;;;;;;5020381;28;20465;-72
2024/03/13 08:14:47;;;;;;;21.57;20.77;;;;;;;;;;5030039;28;20472;-72
2024/03/13 08:17:15;;;;;;;21.43;20.63;;;;;;;;;;5015027;28;20459;-72
2024/03/13 08:19:42;;;;;;;22.03;21.13;;;;;;;;;;5012848;28;20869;-72
2024/03/13 08:22:09;;;;;;;22.17;21.27;;;;;;;;;;5015436;28;20503;-71
2024/03/13 08:24:37;;;;;;;21.50;20.70;;;;;;;;;;5031492;28;20465;-73
2024/03/13 08:27:05;;;;;;;21.87;21.00;;;;;;;;;;5029482;28;20466;-74
2024/03/13 08:29:32;;;;;;;21.60;20.70;;;;;;;;;;5013563;28;20525;-72
2024/03/13 08:31:59;;;;;;;20.63;19.83;;;;;;;;;;5015777;28;20472;-73
2024/03/13 08:34:26;;;;;;;21.77;20.87;;;;;;;;;;5013549;28;20486;-70
2024/03/13 08:36:55;;;;;;;21.70;20.80;;;;;;;;;;5030192;28;20515;-70
2024/03/13 08:39:27;;;;;;;21.13;20.33;;;;;;;;;;5016264;28;20504;-70
2024/03/13 08:41:54;;;;;;;22.10;21.20;;;;;;;;;;5029550;28;20495;-69
2024/03/13 08:44:21;;;;;;;20.53;19.73;;;;;;;;;;5014928;28;20883;-74
2024/03/13 08:46:50;;;;;;;20.27;19.47;;;;;;;;;;5033360;28;20733;-73
2024/03/13 08:49:18;;;;;;;20.13;19.33;;;;;;;;;;5015059;28;20566;-70
2024/03/13 08:51:45;;;;;;;19.57;18.87;;;;;;;;;;5030934;28;20455;-71
2024/03/13 08:54:12;;;;;;;19.37;18.67;;;;;;;;;;5014417;28;20582;-70
2024/03/13 08:56:39;;;;;;;19.33;18.63;;;;;;;;;;5011290;28;20470;-71
2024/03/13 08:59:07;;;;;;;19.20;18.50;;;;;;;;;;5016538;28;20549;-71
2024/03/13 09:01:41;;;;;;;19.67;18.97;;;;;;;;;;5033120;28;20556;-70
2024/03/13 09:04:09;;;;;;;18.73;18.03;;;;;;;;;;5017146;28;20473;-71
2024/03/13 09:06:38;;;;;;;19.57;18.87;;;;;;;;;;5013814;28;20476;-72
2024/03/13 09:09:05;;;;;;;19.10;18.40;;;;;;;;;;5016616;28;20834;-71
2024/03/13 09:11:33;;;;;;;19.03;18.33;;;;;;;;;;5015354;28;20554;-70
2024/03/13 09:14:03;;;;;;;18.33;17.70;;;;;;;;;;5029576;28;20456;-70
2024/03/13 09:16:31;;;;;;;18.30;17.60;;;;;;;;;;5013424;28;20478;-70
2024/03/13 09:18:58;;;;;;;18.30;17.70;;;;;;;;;;5019039;28;20475;-72
2024/03/13 09:21:26;;;;;;;19.33;18.63;;;;;;;;;;5029815;28;20857;-72
2024/03/13 09:23:53;;;;;;;18.73;18.03;;;;;;;;;;5011436;28;20982;-73
2024/03/13 09:26:20;;;;;;;18.83;18.13;;;;;;;;;;5012311;28;20471;-72
2024/03/13 09:28:47;;;;;;;19.50;18.80;;;;;;;;;;5015930;28;21237;-73
2024/03/13 09:31:14;;;;;;;18.73;18.03;;;;;;;;;;5015653;28;20461;-72
2024/03/13 09:33:41;;;;;;;18.20;17.50;;;;;;;;;;5011711;28;20466;-75
2024/03/13 09:36:09;;;;;;;18.23;17.53;;;;;;;;;;4997197;28;20472;-73
2024/03/13 09:38:36;;;;;;;17.50;16.90;;;;;;;;;;4978000;28;20471;-71
2024/03/13 09:41:07;;;;;;;18.03;17.33;;;;;;;;;;5006864;28;20527;-72
2024/03/13 09:43:36;;;;;;;18.70;18.00;;;;;;;;;;4999472;28;20603;-73
2024/03/13 09:46:03;;;;;;;16.70;16.10;;;;;;;;;;5009060;28;20475;-72
2024/03/13 09:48:31;;;;;;;16.97;16.37;;;;;;;;;;5014541;28;20504;-72
2024/03/13 09:50:59;;;;;;;17.00;16.40;;;;;;;;;;5027969;28;20500;-72
2024/03/13 09:53:27;;;;;;;16.27;15.67;;;;;;;;;;5030829;28;20469;-70
2024/03/13 09:55:55;;;;;;;16.43;15.83;;;;;;;;;;5009778;28;20540;-70
2024/03/13 09:58:22;;;;;;;17.23;16.53;;;;;;;;;;5024499;28;20492;-70
2024/03/13 10:00:52;;;;;;;17.60;16.90;;;;;;;;;;5012112;28;20511;-70
2024/03/13 10:03:19;;;;;;;16.70;16.10;;;;;;;;;;5013787;28;20474;-69
2024/03/13 10:05:46;;;;;;;17.40;16.70;;;;;;;;;;5013915;28;20462;-71
2024/03/13 10:08:14;;;;;;;17.20;16.50;;;;;;;;;;5010539;28;20600;-70
2024/03/13 10:10:41;;;;;;;16.23;15.63;;;;;;;;;;5028909;28;20464;-70
2024/03/13 10:13:09;;;;;;;15.90;15.30;;;;;;;;;;5008168;28;22208;-70
2024/03/13 10:15:37;;;;;;;16.20;15.60;;;;;;;;;;5026934;28;20466;-70
2024/03/13 10:18:05;;;;;;;16.40;15.80;;;;;;;;;;5008144;28;20473;-73
2024/03/13 10:20:32;;;;;;;15.50;14.90;;;;;;;;;;5014846;28;20990;-72
2024/03/13 10:23:01;;;;;;;15.43;14.83;;;;;;;;;;5009034;28;20480;-70
2024/03/13 10:25:29;;;;;;;15.63;15.03;;;;;;;;;;5030159;28;20466;-72
2024/03/13 10:27:56;;;;;;;14.90;14.40;;;;;;;;;;5013920;28;20476;-73
2024/03/13 10:30:24;;;;;;;15.23;14.63;;;;;;;;;;5026884;28;20491;-72
2024/03/13 10:32:52;;;;;;;14.67;14.17;;;;;;;;;;5012013;28;20465;-73
2024/03/13 10:35:19;;;;;;;15.80;15.20;;;;;;;;;;5012945;28;20544;-72
2024/03/13 10:37:46;;;;;;;14.50;14.00;;;;;;;;;;5024372;28;20468;-74
2024/03/13 10:40:14;;;;;;;14.47;13.97;;;;;;;;;;5004755;28;20472;-72
2024/03/13 10:42:42;;;;;;;14.30;13.80;;;;;;;;;;5013882;28;20503;-75
2024/03/13 10:45:11;;;;;;;14.43;13.93;;;;;;;;;;5014687;28;20547;-72
2024/03/13 10:47:39;;;;;;;14.30;13.80;;;;;;;;;;5011973;28;20473;-72
2024/03/13 10:50:08;;;;;;;13.77;13.27;;;;;;;;;;5028858;28;20983;-72
2024/03/13 10:52:37;;;;;;;13.43;12.93;;;;;;;;;;5012627;28;20472;-71
2024/03/13 10:55:05;;;;;;;13.40;12.90;;;;;;;;;;5011213;28;20523;-72
2024/03/13 10:57:36;;;;;;;13.07;12.67;;;;;;;;;;5010010;28;20459;-72
2024/03/13 11:00:03;;;;;;;13.70;13.20;;;;;;;;;;5026768;28;20493;-71
2024/03/13 11:02:32;;;;;;;13.30;12.80;;;;;;;;;;5005932;28;20504;-72
2024/03/13 11:04:59;;;;;;;13.47;12.97;;;;;;;;;;5025436;28;20559;-75
2024/03/13 11:07:27;;;;;;;12.47;12.07;;;;;;;;;;5010494;28;20464;-75
2024/03/13 11:09:54;;;;;;;12.33;11.93;;;;;;;;;;5013687;28;20986;-73
2024/03/13 11:12:23;;;;;;;12.20;11.80;;;;;;;;;;5008657;28;20500;-72
2024/03/13 11:14:51;;;;;;;11.20;10.90;;;;;;;;;;5013843;28;20550;-73
2024/03/13 11:17:18;;;;;;;11.73;11.43;;;;;;;;;;5013588;28;20468;-73
2024/03/13 11:19:45;;;;;;;11.43;11.13;;;;;;;;;;5013867;28;20462;-71
2024/03/13 11:22:14;;;;;;;11.30;11.00;;;;;;;;;;5026379;28;20992;-70
2024/03/13 11:24:42;;;;;;;10.97;10.67;;;;;;;;;;5027749;28;20466;-70
2024/03/13 11:27:10;;;;;;;10.87;10.57;;;;;;;;;;5029666;28;20476;-71
2024/03/13 11:29:38;;;;;;;10.27;10.07;;;;;;;;;;5026919;28;20453;-70
2024/03/13 11:32:06;;;;;;;11.30;11.00;;;;;;;;;;5013241;28;20472;-70
2024/03/13 11:34:35;;;;;;;11.00;10.70;;;;;;;;;;5026451;28;20475;-69
2024/03/13 11:37:03;;;;;;;10.93;10.63;;;;;;;;;;5012122;28;20476;-70
2024/03/13 11:39:31;;;;;;;11.03;10.73;;;;;;;;;;5013767;28;20471;-69
2024/03/13 11:42:03;;;;;;;11.53;11.23;;;;;;;;;;5026213;28;21094;-69
2024/03/13 11:44:30;;;;;;;11.27;10.97;;;;;;;;;;5026551;28;20995;-70
2024/03/13 11:46:58;;;;;;;11.47;11.17;;;;;;;;;;5008499;28;20475;-69
2024/03/13 11:49:25;;;;;;;11.40;11.10;;;;;;;;;;5010385;28;20475;-68
2024/03/13 11:52:11;;;;;;;11.40;11.10;;;;;;;;;;5012637;28;20467;-69
2024/03/13 11:54:40;;;;;;;11.77;11.47;;;;;;;;;;5026676;28;20465;-72
2024/03/13 11:57:07;;;;;;;11.50;11.20;;;;;;;;;;5024802;28;20543;-69
2024/03/13 11:59:42;;;;;;;11.60;11.30;;;;;;;;;;5027214;28;21023;-71
2024/03/13 12:02:15;;;;;;;11.47;11.17;;;;;;;;;;5007656;28;21022;-70
2024/03/13 12:04:44;;;;;;;11.13;10.83;;;;;;;;;;5027336;28;20556;-71
2024/03/13 12:07:13;;;;;;;11.07;10.77;;;;;;;;;;5006974;28;20461;-72
2024/03/13 12:09:40;;;;;;;10.70;10.40;;;;;;;;;;5023910;28;20473;-73
2024/03/13 12:12:09;;;;;;;10.90;10.60;;;;;;;;;;5027987;28;20491;-75
2024/03/13 12:14:36;;;;;;;10.90;10.60;;;;;;;;;;5011109;28;20495;-71
2024/03/13 12:17:05;;;;;;;10.80;10.50;;;;;;;;;;5009148;28;20950;-75
2024/03/13 12:19:32;;;;;;;11.40;11.10;;;;;;;;;;5009866;28;20473;-70
2024/03/13 12:21:59;;;;;;;11.43;11.13;;;;;;;;;;5009724;28;20484;-72
2024/03/13 12:24:27;;;;;;;11.60;11.30;;;;;;;;;;5011419;28;20549;-70
2024/03/13 12:26:55;;;;;;;12.83;12.43;;;;;;;;;;5009423;28;20470;-70
2024/03/13 12:29:23;;;;;;;12.33;11.93;;;;;;;;;;5006925;28;20569;-70
2024/03/13 12:31:51;;;;;;;12.80;12.40;;;;;;;;;;5006850;28;21049;-72
2024/03/13 12:34:18;;;;;;;12.27;11.87;;;;;;;;;;5012949;28;20466;-72
2024/03/13 12:36:47;;;;;;;12.30;11.90;;;;;;;;;;5011455;28;20656;-73
2024/03/13 12:39:17;;;;;;;12.10;11.70;;;;;;;;;;5008675;28;20481;-70
2024/03/13 12:41:44;;;;;;;12.70;12.30;;;;;;;;;;5025625;28;21019;-70
2024/03/13 12:44:11;;;;;;;12.53;12.13;;;;;;;;;;5026375;28;20477;-74
2024/03/13 12:46:40;;;;;;;13.33;12.93;;;;;;;;;;5016596;28;20502;-75
2024/03/13 12:49:07;;;;;;;12.43;12.03;;;;;;;;;;5011683;28;20758;-75
2024/03/13 12:51:34;;;;;;;12.60;12.20;;;;;;;;;;5009996;28;20472;-75
2024/03/13 12:54:06;;;;;;;12.67;12.27;;;;;;;;;;5013087;28;20804;-72
2024/03/13 12:56:34;;;;;;;12.60;12.20;;;;;;;;;;5023690;28;20455;-73
2024/03/13 12:59:01;;;;;;;13.03;12.63;;;;;;;;;;5029250;28;20486;-72
2024/03/13 13:01:28;;;;;;;13.03;12.63;;;;;;;;;;4994611;28;254090;-72
2024/03/13 13:03:56;;;;;;;12.50;12.10;;;;;;;;;;5007680;28;20466;-72
2024/03/13 13:06:23;;;;;;;12.03;11.73;;;;;;;;;;5014061;28;20796;-75
2024/03/13 13:08:50;;;;;;;11.80;11.50;;;;;;;;;;5016576;28;20817;-72
2024/03/13 13:11:18;;;;;;;12.03;11.73;;;;;;;;;;5030482;28;20842;-73
2024/03/13 13:13:45;;;;;;;12.27;11.87;;;;;;;;;;5029634;28;20470;-73
2024/03/13 13:16:12;;;;;;;11.73;11.43;;;;;;;;;;5012961;28;20465;-72
2024/03/13 13:18:43;;;;;;;11.77;11.47;;;;;;;;;;5014594;28;20459;-72
2024/03/13 13:21:10;;;;;;;11.30;11.00;;;;;;;;;;5014994;28;20529;-74
2024/03/13 13:23:38;;;;;;;11.33;11.03;;;;;;;;;;5013684;28;20496;-71
2024/03/13 13:26:05;;;;;;;11.50;11.20;;;;;;;;;;5032085;28;20460;-73
2024/03/13 13:28:32;;;;;;;12.50;12.10;;;;;;;;;;5015156;28;20467;-71
2024/03/13 13:31:00;;;;;;;11.70;11.40;;;;;;;;;;5011338;28;20474;-74
2024/03/13 13:33:27;;;;;;;11.90;11.60;;;;;;;;;;5012427;28;20485;-74
2024/03/13 13:35:54;;;;;;;11.80;11.50;;;;;;;;;;5020810;28;20477;-72
2024/03/13 13:38:23;;;;;;;12.00;11.70;;;;;;;;;;5013938;28;20798;-71
2024/03/13 13:40:51;;;;;;;11.87;11.57;;;;;;;;;;5030814;28;21069;-72
2024/03/13 13:43:21;;;;;;;12.00;11.70;;;;;;;;;;5031355;28;20494;-71
2024/03/13 13:45:48;;;;;;;11.73;11.43;;;;;;;;;;5031313;28;20465;-73
2024/03/13 13:48:19;;;;;;;12.63;12.23;;;;;;;;;;5029880;28;20461;-72
2024/03/13 13:50:47;;;;;;;12.83;12.43;;;;;;;;;;5015260;28;20490;-71
2024/03/13 13:53:15;;;;;;;12.03;11.73;;;;;;;;;;5013974;28;20468;-71
2024/03/13 13:55:43;;;;;;;11.73;11.43;;;;;;;;;;5013494;28;20476;-72
2024/03/13 13:58:11;;;;;;;12.03;11.73;;;;;;;;;;5011689;28;20528;-71
2024/03/13 14:00:38;;;;;;;12.30;11.90;;;;;;;;;;5030695;28;20498;-69
2024/03/13 14:03:05;;;;;;;11.90;11.60;;;;;;;;;;5015534;28;20504;-69
2024/03/13 14:05:34;;;;;;;12.33;11.97;;;;;;;;;;5012090;28;20461;-69
2024/03/13 14:08:01;;;;;;;12.00;11.70;;;;;;;;;;5012765;28;20602;-69
2024/03/13 14:10:28;;;;;;;12.20;11.90;;;;;;;;;;5011484;28;20474;-72
2024/03/13 14:12:57;;;;;;;12.33;12.00;;;;;;;;;;5015123;28;20820;-70
2024/03/13 14:15:24;;;;;;;12.90;12.50;;;;;;;;;;5028638;28;20473;-70
2024/03/13 14:17:51;;;;;;;12.50;12.10;;;;;;;;;;5030517;28;20462;-70
2024/03/13 14:20:19;;;;;;;12.17;11.87;;;;;;;;;;5029527;28;20465;-72
2024/03/13 14:22:48;;;;;;;12.17;11.87;;;;;;;;;;5028291;28;20506;-70
2024/03/13 14:25:15;;;;;;;12.87;12.47;;;;;;;;;;5011654;28;20821;-70
2024/03/13 14:27:43;;;;;;;12.73;12.33;;;;;;;;;;5030934;28;20650;-72
2024/03/13 14:30:11;;;;;;;12.13;11.83;;;;;;;;;;5012925;28;20804;-70
2024/03/13 14:32:38;;;;;;;12.53;12.13;;;;;;;;;;5014291;28;20476;-71
2024/03/13 14:35:09;;;;;;;12.77;12.37;;;;;;;;;;5012640;28;20480;-72
2024/03/13 14:37:36;;;;;;;12.70;12.30;;;;;;;;;;5025000;28;20469;-73
2024/03/13 14:40:04;;;;;;;12.87;12.47;;;;;;;;;;5014579;28;20473;-72